sensor_id;sensor_type;location;lat;lon;timestamp;pressure;altitude;pressure_sealevel;temperature;humidity
12868;BME280;33517;49.866;8.320;2022-08-25T00:00:15;100548.03;;;20.55;51.84
12868;BME280;33517;49.866;8.320;2022-08-25T00:03:07;100538.63;;;20.52;51.51
12868;BME280;33517;49.866;8.320;2022-08-25T00:06:00;100543.59;;;20.49;51.56
12868;BME280;33517;49.866;8.320;2022-08-25T00:08:52;100537.06;;;20.45;51.71
12868;BME280;33517;49.866;8.320;2022-08-25T00:11:49;100542.06;;;20.41;51.84
12868;BME280;33517;49.866;8.320;2022-08-25T00:14:41;100547.28;;;20.36;51.88
12868;BME280;33517;49.866;8.320;2022-08-25T00:17:33;100539.91;;;20.32;52.00
12868;BME280;33517;49.866;8.320;2022-08-25T00:20:25;100540.38;;;20.29;52.28
12868;BME280;33517;49.866;8.320;2022-08-25T00:23:19;100543.50;;;20.26;52.62
12868;BME280;33517;49.866;8.320;2022-08-25T00:26:12;100535.94;;;20.23;52.33
12868;BME280;33517;49.866;8.320;2022-08-25T00:29:05;100544.38;;;20.19;52.43
12868;BME280;33517;49.866;8.320;2022-08-25T00:31:57;100548.50;;;20.15;52.71
12868;BME280;33517;49.866;8.320;2022-08-25T00:34:49;100545.69;;;20.10;52.82
12868;BME280;33517;49.866;8.320;2022-08-25T00:37:41;100543.50;;;20.07;52.89
12868;BME280;33517;49.866;8.320;2022-08-25T00:40:35;100542.66;;;20.07;52.60
12868;BME280;33517;49.866;8.320;2022-08-25T00:43:33;100544.97;;;20.03;52.93
12868;BME280;33517;49.866;8.320;2022-08-25T00:46:28;100545.41;;;20.00;53.17
12868;BME280;33517;49.866;8.320;2022-08-25T00:49:23;100547.47;;;19.98;53.53
12868;BME280;33517;49.866;8.320;2022-08-25T00:52:19;100547.34;;;19.93;53.92
12868;BME280;33517;49.866;8.320;2022-08-25T00:55:15;100549.41;;;19.91;53.67
12868;BME280;33517;49.866;8.320;2022-08-25T00:58:13;100545.56;;;19.87;53.63
12868;BME280;33517;49.866;8.320;2022-08-25T01:01:07;100548.69;;;19.84;53.71
12868;BME280;33517;49.866;8.320;2022-08-25T01:03:59;100543.53;;;19.83;53.74
12868;BME280;33517;49.866;8.320;2022-08-25T01:06:51;100544.00;;;19.80;53.95
12868;BME280;33517;49.866;8.320;2022-08-25T01:09:45;100544.44;;;19.77;54.19
12868;BME280;33517;49.866;8.320;2022-08-25T01:12:38;100538.50;;;19.75;54.04
12868;BME280;33517;49.866;8.320;2022-08-25T01:15:33;100547.53;;;19.74;54.48
12868;BME280;33517;49.866;8.320;2022-08-25T01:18:26;100556.22;;;19.69;54.54
12868;BME280;33517;49.866;8.320;2022-08-25T01:21:21;100558.31;;;19.67;54.60
12868;BME280;33517;49.866;8.320;2022-08-25T01:24:21;100554.44;;;19.63;54.86
12868;BME280;33517;49.866;8.320;2022-08-25T01:27:14;100567.41;;;19.60;54.89
12868;BME280;33517;49.866;8.320;2022-08-25T01:30:07;100561.69;;;19.56;55.39
12868;BME280;33517;49.866;8.320;2022-08-25T01:33:02;100561.53;;;19.51;55.25
12868;BME280;33517;49.866;8.320;2022-08-25T01:35:53;100564.03;;;19.46;55.35
12868;BME280;33517;49.866;8.320;2022-08-25T01:38:47;100563.25;;;19.39;55.53
12868;BME280;33517;49.866;8.320;2022-08-25T01:41:48;100560.44;;;19.34;55.63
12868;BME280;33517;49.866;8.320;2022-08-25T01:44:42;100567.84;;;19.32;55.67
12868;BME280;33517;49.866;8.320;2022-08-25T01:47:35;100562.72;;;19.30;56.20
12868;BME280;33517;49.866;8.320;2022-08-25T01:50:28;100562.53;;;19.25;56.56
12868;BME280;33517;49.866;8.320;2022-08-25T01:53:22;100558.88;;;19.20;56.95
12868;BME280;33517;49.866;8.320;2022-08-25T01:56:16;100563.84;;;19.16;56.90
12868;BME280;33517;49.866;8.320;2022-08-25T01:59:08;100555.22;;;19.14;57.04
12868;BME280;33517;49.866;8.320;2022-08-25T02:02:00;100559.75;;;19.14;56.78
12868;BME280;33517;49.866;8.320;2022-08-25T02:04:52;100570.84;;;19.11;56.76
12868;BME280;33517;49.866;8.320;2022-08-25T02:07:44;100573.97;;;19.08;56.68
12868;BME280;33517;49.866;8.320;2022-08-25T02:10:37;100571.94;;;19.03;56.64
12868;BME280;33517;49.866;8.320;2022-08-25T02:13:31;100567.06;;;19.00;56.83
12868;BME280;33517;49.866;8.320;2022-08-25T02:16:25;100566.63;;;18.97;57.37
12868;BME280;33517;49.866;8.320;2022-08-25T02:19:19;100560.09;;;18.93;57.53
12868;BME280;33517;49.866;8.320;2022-08-25T02:22:12;100552.31;;;18.91;57.31
12868;BME280;33517;49.866;8.320;2022-08-25T02:25:05;100556.25;;;18.89;57.71
12868;BME280;33517;49.866;8.320;2022-08-25T02:27:57;100557.72;;;18.85;57.73
12868;BME280;33517;49.866;8.320;2022-08-25T02:30:50;100553.63;;;18.82;57.98
12868;BME280;33517;49.866;8.320;2022-08-25T02:33:43;100552.63;;;18.77;57.88
12868;BME280;33517;49.866;8.320;2022-08-25T02:36:36;100550.59;;;18.72;57.72
12868;BME280;33517;49.866;8.320;2022-08-25T02:39:28;100550.22;;;18.69;58.51
12868;BME280;33517;49.866;8.320;2022-08-25T02:42:20;100552.28;;;18.67;58.42
12868;BME280;33517;49.866;8.320;2022-08-25T02:45:14;100549.00;;;18.65;58.43
12868;BME280;33517;49.866;8.320;2022-08-25T02:48:07;100542.84;;;18.64;58.62
12868;BME280;33517;49.866;8.320;2022-08-25T02:51:00;100555.78;;;18.61;58.99
12868;BME280;33517;49.866;8.320;2022-08-25T02:53:52;100551.72;;;18.58;58.92
12868;BME280;33517;49.866;8.320;2022-08-25T02:56:44;100555.19;;;18.59;58.82
12868;BME280;33517;49.866;8.320;2022-08-25T02:59:36;100546.59;;;18.57;58.98
12868;BME280;33517;49.866;8.320;2022-08-25T03:02:28;100544.13;;;18.55;59.33
12868;BME280;33517;49.866;8.320;2022-08-25T03:05:22;100539.47;;;18.51;59.74
12868;BME280;33517;49.866;8.320;2022-08-25T03:08:14;100538.03;;;18.48;59.51
12868;BME280;33517;49.866;8.320;2022-08-25T03:11:06;100540.09;;;18.46;59.84
12868;BME280;33517;49.866;8.320;2022-08-25T03:13:58;100540.69;;;18.41;59.69
12868;BME280;33517;49.866;8.320;2022-08-25T03:16:50;100543.34;;;18.41;59.95
12868;BME280;33517;49.866;8.320;2022-08-25T03:19:42;100542.97;;;18.38;60.39
12868;BME280;33517;49.866;8.320;2022-08-25T03:22:35;100542.13;;;18.37;60.46
12868;BME280;33517;49.866;8.320;2022-08-25T03:25:28;100538.88;;;18.35;59.80
12868;BME280;33517;49.866;8.320;2022-08-25T03:28:38;100538.47;;;18.32;60.48
12868;BME280;33517;49.866;8.320;2022-08-25T03:31:32;100531.53;;;18.31;60.61
12868;BME280;33517;49.866;8.320;2022-08-25T03:34:25;100536.25;;;18.29;60.60
12868;BME280;33517;49.866;8.320;2022-08-25T03:37:18;100538.72;;;18.24;60.39
12868;BME280;33517;49.866;8.320;2022-08-25T03:40:13;100539.16;;;18.21;60.65
12868;BME280;33517;49.866;8.320;2022-08-25T03:43:06;100539.59;;;18.18;60.81
12868;BME280;33517;49.866;8.320;2022-08-25T03:45:58;100538.16;;;18.15;60.66
12868;BME280;33517;49.866;8.320;2022-08-25T03:48:51;100533.03;;;18.14;60.90
12868;BME280;33517;49.866;8.320;2022-08-25T03:51:45;100540.41;;;18.12;61.31
12868;BME280;33517;49.866;8.320;2022-08-25T03:54:37;100532.03;;;18.08;61.56
12868;BME280;33517;49.866;8.320;2022-08-25T03:57:30;100530.16;;;18.09;61.26
12868;BME280;33517;49.866;8.320;2022-08-25T04:00:22;100518.72;;;18.08;61.38
12868;BME280;33517;49.866;8.320;2022-08-25T04:03:14;100519.13;;;18.05;62.05
12868;BME280;33517;49.866;8.320;2022-08-25T04:06:08;100519.94;;;18.06;62.69
12868;BME280;33517;49.866;8.320;2022-08-25T04:09:00;100518.13;;;18.06;62.52
12868;BME280;33517;49.866;8.320;2022-08-25T04:11:51;100517.50;;;18.04;62.54
12868;BME280;33517;49.866;8.320;2022-08-25T04:14:45;100518.31;;;18.05;62.29
12868;BME280;33517;49.866;8.320;2022-08-25T04:17:38;100523.00;;;18.03;63.10
12868;BME280;33517;49.866;8.320;2022-08-25T04:20:30;100519.78;;;18.01;62.61
12868;BME280;33517;49.866;8.320;2022-08-25T04:23:22;100527.94;;;17.99;62.95
12868;BME280;33517;49.866;8.320;2022-08-25T04:26:16;100528.78;;;18.00;63.38
12868;BME280;33517;49.866;8.320;2022-08-25T04:29:10;100533.09;;;18.01;63.02
12868;BME280;33517;49.866;8.320;2022-08-25T04:32:04;100534.94;;;18.00;63.28
12868;BME280;33517;49.866;8.320;2022-08-25T04:34:56;100524.88;;;18.02;63.60
12868;BME280;33517;49.866;8.320;2022-08-25T04:37:48;100530.81;;;18.04;63.84
12868;BME280;33517;49.866;8.320;2022-08-25T04:40:40;100532.84;;;18.09;64.17
12868;BME280;33517;49.866;8.320;2022-08-25T04:43:32;100534.88;;;18.13;64.25
12868;BME280;33517;49.866;8.320;2022-08-25T04:46:28;100538.97;;;18.16;64.79
12868;BME280;33517;49.866;8.320;2022-08-25T04:49:22;100544.69;;;18.19;64.64
12868;BME280;33517;49.866;8.320;2022-08-25T04:52:14;100540.38;;;18.25;64.37
12868;BME280;33517;49.866;8.320;2022-08-25T04:55:06;100542.19;;;18.31;64.79
12868;BME280;33517;49.866;8.320;2022-08-25T04:57:58;100534.97;;;18.38;64.42
12868;BME280;33517;49.866;8.320;2022-08-25T05:00:50;100533.53;;;18.49;64.29
12868;BME280;33517;49.866;8.320;2022-08-25T05:03:43;100536.75;;;18.57;64.38
12868;BME280;33517;49.866;8.320;2022-08-25T05:06:37;100533.38;;;18.68;64.40
12868;BME280;33517;49.866;8.320;2022-08-25T05:09:29;100537.00;;;18.80;64.36
12868;BME280;33517;49.866;8.320;2022-08-25T05:12:21;100537.97;;;18.92;63.97
12868;BME280;33517;49.866;8.320;2022-08-25T05:15:13;100536.22;;;19.04;64.29
12868;BME280;33517;49.866;8.320;2022-08-25T05:18:25;100544.44;;;19.03;63.91
12868;BME280;33517;49.866;8.320;2022-08-25T05:21:22;100540.06;;;19.15;63.73
12868;BME280;33517;49.866;8.320;2022-08-25T05:24:16;100531.31;;;19.26;63.43
12868;BME280;33517;49.866;8.320;2022-08-25T05:27:08;100530.81;;;19.42;63.51
12868;BME280;33517;49.866;8.320;2022-08-25T05:30:00;100523.88;;;19.59;63.17
12868;BME280;33517;49.866;8.320;2022-08-25T05:32:52;100511.13;;;19.79;62.83
12868;BME280;33517;49.866;8.320;2022-08-25T05:35:44;100512.09;;;20.03;62.64
12868;BME280;33517;49.866;8.320;2022-08-25T05:38:36;100513.25;;;20.43;62.54
12868;BME280;33517;49.866;8.320;2022-08-25T05:41:30;100516.94;;;21.94;59.51
12868;BME280;33517;49.866;8.320;2022-08-25T05:44:23;100521.38;;;24.76;52.19
12868;BME280;33517;49.866;8.320;2022-08-25T05:47:14;100532.44;;;26.51;48.11
12868;BME280;33517;49.866;8.320;2022-08-25T05:50:07;100531.69;;;27.71;46.08
12868;BME280;33517;49.866;8.320;2022-08-25T05:52:59;100530.72;;;28.70;44.38
12868;BME280;33517;49.866;8.320;2022-08-25T05:55:53;100543.78;;;29.35;43.37
12868;BME280;33517;49.866;8.320;2022-08-25T05:58:48;100535.19;;;30.04;42.28
12868;BME280;33517;49.866;8.320;2022-08-25T06:01:40;100533.81;;;30.67;40.84
12868;BME280;33517;49.866;8.320;2022-08-25T06:04:49;100528.88;;;31.39;40.78
12868;BME280;33517;49.866;8.320;2022-08-25T06:07:41;100535.53;;;31.60;39.88
12868;BME280;33517;49.866;8.320;2022-08-25T06:10:34;100533.81;;;31.96;39.03
12868;BME280;33517;49.866;8.320;2022-08-25T06:13:26;100533.72;;;32.50;37.96
12868;BME280;33517;49.866;8.320;2022-08-25T06:16:19;100531.53;;;32.75;37.45
12868;BME280;33517;49.866;8.320;2022-08-25T06:19:11;100533.47;;;32.96;37.22
12868;BME280;33517;49.866;8.320;2022-08-25T06:22:03;100526.56;;;33.21;36.40
12868;BME280;33517;49.866;8.320;2022-08-25T06:24:55;100525.53;;;33.61;36.00
12868;BME280;33517;49.866;8.320;2022-08-25T06:27:47;100519.28;;;34.00;34.73
12868;BME280;33517;49.866;8.320;2022-08-25T06:30:39;100521.88;;;34.13;34.62
12868;BME280;33517;49.866;8.320;2022-08-25T06:33:32;100517.94;;;34.79;34.10
12868;BME280;33517;49.866;8.320;2022-08-25T06:36:24;100508.75;;;34.67;33.55
12868;BME280;33517;49.866;8.320;2022-08-25T06:39:16;100511.28;;;35.23;32.75
12868;BME280;33517;49.866;8.320;2022-08-25T06:42:08;100509.59;;;35.39;32.37
12868;BME280;33517;49.866;8.320;2022-08-25T06:45:00;100503.66;;;35.46;32.23
12868;BME280;33517;49.866;8.320;2022-08-25T06:47:52;100509.69;;;35.68;31.84
12868;BME280;33517;49.866;8.320;2022-08-25T06:50:45;100505.13;;;36.10;31.49
12868;BME280;33517;49.866;8.320;2022-08-25T06:53:37;100502.53;;;36.34;31.21
12868;BME280;33517;49.866;8.320;2022-08-25T06:56:29;100495.94;;;36.56;30.32
12868;BME280;33517;49.866;8.320;2022-08-25T06:59:21;100495.38;;;37.16;29.88
12868;BME280;33517;49.866;8.320;2022-08-25T07:02:13;100493.75;;;37.71;30.11
12868;BME280;33517;49.866;8.320;2022-08-25T07:05:06;100502.94;;;37.75;29.32
12868;BME280;33517;49.866;8.320;2022-08-25T07:07:59;100495.47;;;38.00;29.08
12868;BME280;33517;49.866;8.320;2022-08-25T07:10:51;100496.28;;;38.52;28.80
12868;BME280;33517;49.866;8.320;2022-08-25T07:13:43;100491.06;;;38.75;28.74
12868;BME280;33517;49.866;8.320;2022-08-25T07:16:35;100498.28;;;38.80;27.84
12868;BME280;33517;49.866;8.320;2022-08-25T07:19:27;100492.81;;;38.28;28.10
12868;BME280;33517;49.866;8.320;2022-08-25T07:22:19;100489.97;;;38.52;28.06
12868;BME280;33517;49.866;8.320;2022-08-25T07:25:14;100490.91;;;38.99;27.59
12868;BME280;33517;49.866;8.320;2022-08-25T07:28:06;100500.22;;;39.22;26.97
12868;BME280;33517;49.866;8.320;2022-08-25T07:30:58;100492.72;;;39.07;27.52
12868;BME280;33517;49.866;8.320;2022-08-25T07:33:51;100493.84;;;39.96;26.69
12868;BME280;33517;49.866;8.320;2022-08-25T07:37:01;100485.88;;;39.60;26.77
12868;BME280;33517;49.866;8.320;2022-08-25T07:39:54;100488.19;;;39.93;26.14
12868;BME280;33517;49.866;8.320;2022-08-25T07:42:49;100489.34;;;39.92;26.24
12868;BME280;33517;49.866;8.320;2022-08-25T07:45:41;100483.06;;;40.64;25.65
12868;BME280;33517;49.866;8.320;2022-08-25T07:48:33;100487.09;;;41.08;25.49
12868;BME280;33517;49.866;8.320;2022-08-25T07:51:25;100488.03;;;40.74;25.43
12868;BME280;33517;49.866;8.320;2022-08-25T07:54:17;100491.03;;;41.07;25.52
12868;BME280;33517;49.866;8.320;2022-08-25T07:57:09;100496.13;;;41.24;25.40
12868;BME280;33517;49.866;8.320;2022-08-25T08:00:02;100495.41;;;41.54;24.52
12868;BME280;33517;49.866;8.320;2022-08-25T08:02:56;100493.13;;;42.38;24.29
12868;BME280;33517;49.866;8.320;2022-08-25T08:05:48;100503.78;;;42.69;23.12
12868;BME280;33517;49.866;8.320;2022-08-25T08:08:42;100498.41;;;42.46;24.10
12868;BME280;33517;49.866;8.320;2022-08-25T08:11:35;100501.22;;;42.83;23.57
12868;BME280;33517;49.866;8.320;2022-08-25T08:14:30;100503.81;;;43.42;23.43
12868;BME280;33517;49.866;8.320;2022-08-25T08:17:23;100503.59;;;43.61;22.24
12868;BME280;33517;49.866;8.320;2022-08-25T08:20:15;100508.78;;;43.23;22.48
12868;BME280;33517;49.866;8.320;2022-08-25T08:23:07;100509.81;;;43.51;23.42
12868;BME280;33517;49.866;8.320;2022-08-25T08:25:59;100501.53;;;43.58;22.86
12868;BME280;33517;49.866;8.320;2022-08-25T08:28:51;100511.50;;;44.17;22.28
12868;BME280;33517;49.866;8.320;2022-08-25T08:31:43;100501.09;;;44.97;21.65
12868;BME280;33517;49.866;8.320;2022-08-25T08:34:36;100501.97;;;45.64;21.28
12868;BME280;33517;49.866;8.320;2022-08-25T08:37:28;100497.56;;;45.98;20.83
12868;BME280;33517;49.866;8.320;2022-08-25T08:40:21;100509.69;;;46.64;20.33
12868;BME280;33517;49.866;8.320;2022-08-25T08:43:15;100507.84;;;46.26;19.24
12868;BME280;33517;49.866;8.320;2022-08-25T08:46:09;100505.13;;;45.24;20.72
12868;BME280;33517;49.866;8.320;2022-08-25T08:49:05;100495.47;;;44.72;20.48
12868;BME280;33517;49.866;8.320;2022-08-25T08:52:00;100489.41;;;43.73;21.79
12868;BME280;33517;49.866;8.320;2022-08-25T08:54:58;100495.94;;;45.06;21.09
12868;BME280;33517;49.866;8.320;2022-08-25T08:57:54;100498.75;;;45.87;20.17
12868;BME280;33517;49.866;8.320;2022-08-25T09:00:50;100490.28;;;46.39;19.67
12868;BME280;33517;49.866;8.320;2022-08-25T09:03:46;100489.69;;;45.51;20.23
12868;BME280;33517;49.866;8.320;2022-08-25T09:06:42;100487.59;;;44.88;20.23
12868;BME280;33517;49.866;8.320;2022-08-25T09:09:39;100475.69;;;44.81;20.55
12868;BME280;33517;49.866;8.320;2022-08-25T09:12:36;100476.41;;;46.29;20.06
12868;BME280;33517;49.866;8.320;2022-08-25T09:15:37;100481.41;;;46.66;19.04
12868;BME280;33517;49.866;8.320;2022-08-25T09:18:53;100481.47;;;46.52;18.79
12868;BME280;33517;49.866;8.320;2022-08-25T09:21:52;100472.13;;;46.03;19.20
12868;BME280;33517;49.866;8.320;2022-08-25T09:24:56;100478.84;;;46.92;19.30
12868;BME280;33517;49.866;8.320;2022-08-25T09:28:00;100467.84;;;47.26;18.86
12868;BME280;33517;49.866;8.320;2022-08-25T09:30:59;100461.56;;;46.57;18.59
12868;BME280;33517;49.866;8.320;2022-08-25T09:33:54;100459.09;;;46.69;18.75
12868;BME280;33517;49.866;8.320;2022-08-25T09:36:47;100461.16;;;46.62;18.45
12868;BME280;33517;49.866;8.320;2022-08-25T09:39:42;100462.75;;;46.63;18.79
12868;BME280;33517;49.866;8.320;2022-08-25T09:42:49;100448.50;;;47.05;17.75
12868;BME280;33517;49.866;8.320;2022-08-25T09:45:44;100440.94;;;47.53;17.90
12868;BME280;33517;49.866;8.320;2022-08-25T09:48:44;100441.28;;;47.96;17.35
12868;BME280;33517;49.866;8.320;2022-08-25T09:51:37;100437.16;;;47.33;17.53
12868;BME280;33517;49.866;8.320;2022-08-25T09:54:30;100426.50;;;47.62;17.88
12868;BME280;33517;49.866;8.320;2022-08-25T09:57:30;100416.78;;;47.77;17.05
12868;BME280;33517;49.866;8.320;2022-08-25T10:00:27;100407.72;;;47.99;17.41
12868;BME280;33517;49.866;8.320;2022-08-25T10:03:21;100410.59;;;47.14;16.96
12868;BME280;33517;49.866;8.320;2022-08-25T10:06:14;100412.84;;;46.06;17.60
12868;BME280;33517;49.866;8.320;2022-08-25T10:09:07;100408.06;;;46.07;18.38
12868;BME280;33517;49.866;8.320;2022-08-25T10:12:00;100406.88;;;46.08;18.43
12868;BME280;33517;49.866;8.320;2022-08-25T10:14:54;100409.75;;;47.21;17.41
12868;BME280;33517;49.866;8.320;2022-08-25T10:17:48;100398.38;;;47.01;17.26
12868;BME280;33517;49.866;8.320;2022-08-25T10:20:40;100394.00;;;47.00;17.83
12868;BME280;33517;49.866;8.320;2022-08-25T10:23:34;100395.69;;;47.72;17.15
12868;BME280;33517;49.866;8.320;2022-08-25T10:26:33;100386.19;;;48.30;17.07
12868;BME280;33517;49.866;8.320;2022-08-25T10:29:41;100397.09;;;47.09;16.55
12868;BME280;33517;49.866;8.320;2022-08-25T10:32:53;100380.09;;;47.41;16.82
12868;BME280;33517;49.866;8.320;2022-08-25T10:35:56;100385.50;;;46.60;16.51
12868;BME280;33517;49.866;8.320;2022-08-25T10:38:53;100374.06;;;47.46;17.24
12868;BME280;33517;49.866;8.320;2022-08-25T10:41:53;100379.78;;;46.15;17.58
12868;BME280;33517;49.866;8.320;2022-08-25T10:45:04;100368.38;;;46.65;17.30
12868;BME280;33517;49.866;8.320;2022-08-25T10:48:43;100370.22;;;47.33;17.00
12868;BME280;33517;49.866;8.320;2022-08-25T10:51:48;100360.19;;;47.39;17.15
12868;BME280;33517;49.866;8.320;2022-08-25T10:54:48;100368.22;;;47.71;16.84
12868;BME280;33517;49.866;8.320;2022-08-25T10:57:48;100370.38;;;47.56;16.45
12868;BME280;33517;49.866;8.320;2022-08-25T11:00:51;100360.97;;;47.77;16.68
12868;BME280;33517;49.866;8.320;2022-08-25T11:03:49;100344.81;;;47.58;16.51
12868;BME280;33517;49.866;8.320;2022-08-25T11:06:49;100347.88;;;48.04;16.21
12868;BME280;33517;49.866;8.320;2022-08-25T11:09:44;100346.44;;;48.49;16.78
12868;BME280;33517;49.866;8.320;2022-08-25T11:12:41;100337.91;;;47.73;17.04
12868;BME280;33517;49.866;8.320;2022-08-25T11:15:38;100338.22;;;47.45;16.85
12868;BME280;33517;49.866;8.320;2022-08-25T11:18:33;100337.16;;;47.65;16.79
12868;BME280;33517;49.866;8.320;2022-08-25T11:21:35;100327.75;;;48.16;17.07
12868;BME280;33517;49.866;8.320;2022-08-25T11:24:43;100330.59;;;48.89;16.27
12868;BME280;33517;49.866;8.320;2022-08-25T11:27:44;100327.00;;;48.65;16.01
12868;BME280;33517;49.866;8.320;2022-08-25T11:30:37;100328.03;;;47.27;16.85
12868;BME280;33517;49.866;8.320;2022-08-25T11:33:29;100323.44;;;47.07;17.60
12868;BME280;33517;49.866;8.320;2022-08-25T11:36:29;100316.75;;;48.02;16.50
12868;BME280;33517;49.866;8.320;2022-08-25T11:39:34;100298.16;;;45.53;17.90
12868;BME280;33517;49.866;8.320;2022-08-25T11:42:38;100315.22;;;45.62;17.82
12868;BME280;33517;49.866;8.320;2022-08-25T11:46:02;100316.41;;;45.61;17.87
12868;BME280;33517;49.866;8.320;2022-08-25T11:52:43;100308.31;;;45.95;17.16
12868;BME280;33517;49.866;8.320;2022-08-25T11:55:48;100301.75;;;47.25;16.98
12868;BME280;33517;49.866;8.320;2022-08-25T11:58:46;100304.16;;;47.60;16.46
12868;BME280;33517;49.866;8.320;2022-08-25T12:02:16;100309.41;;;48.15;15.70
12868;BME280;33517;49.866;8.320;2022-08-25T12:05:50;100294.69;;;46.73;16.19
12868;BME280;33517;49.866;8.320;2022-08-25T12:08:50;100295.47;;;47.17;16.62
12868;BME280;33517;49.866;8.320;2022-08-25T12:11:50;100298.84;;;47.99;15.93
12868;BME280;33517;49.866;8.320;2022-08-25T12:14:45;100295.19;;;47.76;15.94
12868;BME280;33517;49.866;8.320;2022-08-25T12:17:37;100291.19;;;47.77;15.65
12868;BME280;33517;49.866;8.320;2022-08-25T12:24:18;100290.66;;;47.55;15.90
12868;BME280;33517;49.866;8.320;2022-08-25T12:27:22;100277.56;;;44.20;18.15
12868;BME280;33517;49.866;8.320;2022-08-25T12:30:18;100267.53;;;41.81;19.02
12868;BME280;33517;49.866;8.320;2022-08-25T12:33:19;100273.03;;;41.48;20.37
12868;BME280;33517;49.866;8.320;2022-08-25T12:36:25;100264.75;;;42.51;20.23
12868;BME280;33517;49.866;8.320;2022-08-25T12:39:20;100265.25;;;44.04;19.25
12868;BME280;33517;49.866;8.320;2022-08-25T12:42:27;100260.94;;;44.69;18.75
12868;BME280;33517;49.866;8.320;2022-08-25T12:45:39;100260.16;;;44.94;18.92
12868;BME280;33517;49.866;8.320;2022-08-25T12:48:52;100267.31;;;44.45;18.13
12868;BME280;33517;49.866;8.320;2022-08-25T12:51:53;100268.47;;;45.04;18.31
12868;BME280;33517;49.866;8.320;2022-08-25T12:54:51;100269.34;;;45.98;17.80
12868;BME280;33517;49.866;8.320;2022-08-25T12:57:45;100269.25;;;46.12;17.20
12868;BME280;33517;49.866;8.320;2022-08-25T13:00:59;100261.56;;;46.78;17.34
12868;BME280;33517;49.866;8.320;2022-08-25T13:04:38;100263.56;;;48.12;16.08
12868;BME280;33517;49.866;8.320;2022-08-25T13:07:47;100268.38;;;47.52;16.15
12868;BME280;33517;49.866;8.320;2022-08-25T13:10:48;100255.50;;;46.90;16.41
12868;BME280;33517;49.866;8.320;2022-08-25T13:13:48;100255.53;;;45.74;17.61
12868;BME280;33517;49.866;8.320;2022-08-25T13:16:51;100238.63;;;42.52;19.18
12868;BME280;33517;49.866;8.320;2022-08-25T13:19:43;100232.94;;;41.05;20.24
12868;BME280;33517;49.866;8.320;2022-08-25T13:22:36;100219.97;;;39.16;21.90
12868;BME280;33517;49.866;8.320;2022-08-25T13:25:29;100222.47;;;38.12;22.82
12868;BME280;33517;49.866;8.320;2022-08-25T13:28:27;100226.97;;;37.49;24.19
12868;BME280;33517;49.866;8.320;2022-08-25T13:31:20;100223.22;;;35.88;25.57
12868;BME280;33517;49.866;8.320;2022-08-25T13:34:18;100217.72;;;35.35;26.54
12868;BME280;33517;49.866;8.320;2022-08-25T13:37:15;100210.88;;;35.20;27.34
12868;BME280;33517;49.866;8.320;2022-08-25T13:40:24;100207.00;;;35.42;27.07
12868;BME280;33517;49.866;8.320;2022-08-25T13:43:16;100197.41;;;35.36;26.76
12868;BME280;33517;49.866;8.320;2022-08-25T13:46:09;100195.09;;;35.46;26.87
12868;BME280;33517;49.866;8.320;2022-08-25T13:49:05;100201.09;;;35.19;27.19
12868;BME280;33517;49.866;8.320;2022-08-25T13:51:58;100193.13;;;35.05;27.88
12868;BME280;33517;49.866;8.320;2022-08-25T13:54:50;100189.72;;;34.42;28.66
12868;BME280;33517;49.866;8.320;2022-08-25T13:57:43;100180.44;;;35.01;28.23
12868;BME280;33517;49.866;8.320;2022-08-25T14:00:42;100181.06;;;35.27;27.48
12868;BME280;33517;49.866;8.320;2022-08-25T14:03:39;100173.13;;;35.13;27.74
12868;BME280;33517;49.866;8.320;2022-08-25T14:06:32;100173.16;;;34.76;28.23
12868;BME280;33517;49.866;8.320;2022-08-25T14:09:24;100178.44;;;34.14;29.11
12868;BME280;33517;49.866;8.320;2022-08-25T14:12:27;100168.50;;;33.92;29.54
12868;BME280;33517;49.866;8.320;2022-08-25T14:15:28;100165.31;;;33.99;29.51
12868;BME280;33517;49.866;8.320;2022-08-25T14:18:27;100159.06;;;33.73;29.66
12868;BME280;33517;49.866;8.320;2022-08-25T14:21:25;100163.91;;;33.67;29.69
12868;BME280;33517;49.866;8.320;2022-08-25T14:24:19;100157.66;;;33.58;29.98
12868;BME280;33517;49.866;8.320;2022-08-25T14:27:12;100160.88;;;33.52;30.00
12868;BME280;33517;49.866;8.320;2022-08-25T14:30:04;100156.69;;;33.37;30.30
12868;BME280;33517;49.866;8.320;2022-08-25T14:32:57;100151.22;;;33.20;30.43
12868;BME280;33517;49.866;8.320;2022-08-25T14:35:51;100150.63;;;32.58;32.14
12868;BME280;33517;49.866;8.320;2022-08-25T14:38:45;100145.75;;;32.38;31.89
12868;BME280;33517;49.866;8.320;2022-08-25T14:41:38;100148.53;;;32.55;31.97
12868;BME280;33517;49.866;8.320;2022-08-25T14:44:31;100142.50;;;32.67;31.01
12868;BME280;33517;49.866;8.320;2022-08-25T14:47:23;100134.00;;;32.77;31.49
12868;BME280;33517;49.866;8.320;2022-08-25T14:50:15;100138.16;;;32.83;30.90
12868;BME280;33517;49.866;8.320;2022-08-25T14:53:09;100134.00;;;32.85;30.58
12868;BME280;33517;49.866;8.320;2022-08-25T14:56:03;100132.75;;;32.91;30.75
12868;BME280;33517;49.866;8.320;2022-08-25T14:58:55;100132.09;;;32.86;31.37
12868;BME280;33517;49.866;8.320;2022-08-25T15:01:48;100131.91;;;32.74;30.92
12868;BME280;33517;49.866;8.320;2022-08-25T15:04:40;100124.72;;;32.86;30.84
12868;BME280;33517;49.866;8.320;2022-08-25T15:07:33;100116.88;;;32.93;30.96
12868;BME280;33517;49.866;8.320;2022-08-25T15:10:43;100115.25;;;32.84;31.60
12868;BME280;33517;49.866;8.320;2022-08-25T15:13:36;100113.00;;;32.69;31.74
12868;BME280;33517;49.866;8.320;2022-08-25T15:16:31;100113.16;;;32.81;32.09
12868;BME280;33517;49.866;8.320;2022-08-25T15:19:25;100105.44;;;32.83;31.73
12868;BME280;33517;49.866;8.320;2022-08-25T15:22:17;100104.03;;;32.77;32.11
12868;BME280;33517;49.866;8.320;2022-08-25T15:25:09;100109.28;;;32.73;32.25